createdAt,value
2024-02-16T00:01:42.368Z,10.80
2024-02-16T00:04:10.757Z,10.43
2024-02-16T00:06:39.227Z,9.70
2024-02-16T00:09:11.441Z,10.20
2024-02-16T00:11:40.026Z,9.23
2024-02-16T00:14:08.450Z,9.37
2024-02-16T00:16:37.038Z,10.77
2024-02-16T00:19:05.763Z,9.90
2024-02-16T00:21:34.346Z,10.93
2024-02-16T00:24:04.217Z,9.83
2024-02-16T00:26:34.226Z,10.63
2024-02-16T00:29:02.703Z,11.53
2024-02-16T00:31:33.536Z,10.60
2024-02-16T00:34:02.108Z,10.10
2024-02-16T00:36:32.029Z,11.17
2024-02-16T00:39:00.859Z,10.07
2024-02-16T00:41:29.322Z,11.10
2024-02-16T00:43:59.159Z,10.20
2024-02-16T00:46:27.734Z,10.00
2024-02-16T00:48:56.441Z,9.30
2024-02-16T00:51:27.563Z,10.80
2024-02-16T00:53:56.096Z,10.87
2024-02-16T00:56:24.735Z,10.53
2024-02-16T00:58:53.178Z,10.43
2024-02-16T01:01:23.984Z,9.60
2024-02-16T01:03:53.222Z,10.37
2024-02-16T01:06:22.086Z,11.63
2024-02-16T01:08:50.736Z,11.03
2024-02-16T01:11:20.686Z,10.63
2024-02-16T01:13:49.324Z,10.80
2024-02-16T01:16:18.878Z,9.83
2024-02-16T01:18:48.890Z,11.63
2024-02-16T01:21:17.789Z,11.50
2024-02-16T01:23:46.215Z,11.27
2024-02-16T01:26:15.011Z,12.33
2024-02-16T01:28:43.587Z,11.20
2024-02-16T01:31:13.032Z,11.53
2024-02-16T01:33:41.600Z,10.93
2024-02-16T01:36:11.961Z,11.20
2024-02-16T01:38:40.341Z,11.03
2024-02-16T01:41:10.229Z,10.20
2024-02-16T01:43:38.646Z,10.10
2024-02-16T01:46:07.130Z,10.93
2024-02-16T01:48:35.818Z,11.43
2024-02-16T01:51:04.802Z,11.50
2024-02-16T01:53:34.900Z,9.47
2024-02-16T01:56:03.444Z,9.87
2024-02-16T01:58:31.953Z,9.87
2024-02-16T02:01:00.465Z,10.73
2024-02-16T02:03:29.035Z,11.30
2024-02-16T02:05:57.822Z,11.17
2024-02-16T02:08:28.558Z,10.90
2024-02-16T02:10:58.404Z,10.23
2024-02-16T02:13:26.817Z,9.07
2024-02-16T02:15:56.638Z,10.67
2024-02-16T02:18:25.367Z,9.77
2024-02-16T02:20:54.867Z,10.50
2024-02-16T02:23:24.660Z,9.13
2024-02-16T02:25:53.048Z,9.50
2024-02-16T02:28:25.175Z,9.37
2024-02-16T02:30:54.792Z,10.13
2024-02-16T02:33:23.449Z,9.67
2024-02-16T02:35:52.661Z,9.07
2024-02-16T02:38:21.054Z,9.70
2024-02-16T02:40:51.509Z,10.03
2024-02-16T02:43:23.228Z,10.30
2024-02-16T02:45:51.609Z,9.57
2024-02-16T02:48:20.036Z,9.43
2024-02-16T02:50:48.718Z,9.23
2024-02-16T02:53:17.419Z,8.70
2024-02-16T02:55:45.768Z,9.77
2024-02-16T02:58:15.723Z,10.27
2024-02-16T03:00:44.242Z,8.77
2024-02-16T03:03:12.852Z,9.70
2024-02-16T03:05:44.524Z,9.83
2024-02-16T03:08:13.152Z,8.93
2024-02-16T03:10:41.540Z,8.27
2024-02-16T03:13:10.357Z,8.87
2024-02-16T03:15:40.220Z,8.73
2024-02-16T03:18:10.554Z,8.77
2024-02-16T03:20:40.090Z,7.93
2024-02-16T03:23:08.460Z,9.40
2024-02-16T03:25:36.799Z,8.90
2024-02-16T03:28:05.522Z,8.40
2024-02-16T03:30:35.004Z,8.13
2024-02-16T03:33:05.059Z,9.50
2024-02-16T03:35:33.560Z,8.60
2024-02-16T03:38:01.924Z,9.27
2024-02-16T03:40:30.869Z,9.27
2024-02-16T03:42:59.514Z,10.27
2024-02-16T03:45:29.820Z,10.40
2024-02-16T03:47:58.481Z,8.83
2024-02-16T03:50:28.589Z,8.53
2024-02-16T03:52:56.939Z,8.57
2024-02-16T03:55:25.315Z,8.73
2024-02-16T03:57:53.939Z,9.07
2024-02-16T04:00:22.547Z,8.00
2024-02-16T04:02:50.978Z,8.87
2024-02-16T04:05:19.549Z,8.20
2024-02-16T04:07:49.317Z,8.67
2024-02-16T04:10:17.851Z,8.60
2024-02-16T04:12:46.278Z,9.27
2024-02-16T04:15:15.056Z,9.00
2024-02-16T04:17:44.118Z,8.00
2024-02-16T04:20:13.565Z,8.23
2024-02-16T04:22:41.985Z,7.90
2024-02-16T04:25:12.073Z,9.30
2024-02-16T04:27:40.855Z,8.70
2024-02-16T04:30:10.206Z,8.23
2024-02-16T04:32:38.747Z,7.07
2024-02-16T04:35:08.108Z,8.10
2024-02-16T04:37:36.610Z,7.87
2024-02-16T04:40:07.065Z,6.80
2024-02-16T04:42:37.042Z,6.77
2024-02-16T04:45:06.847Z,7.20
2024-02-16T04:47:35.968Z,7.30
2024-02-16T04:50:04.629Z,7.87
2024-02-16T04:52:33.094Z,8.03
2024-02-16T04:55:01.654Z,7.70
2024-02-16T04:57:30.224Z,7.70
2024-02-16T05:00:00.085Z,6.60
2024-02-16T05:02:28.521Z,7.53
2024-02-16T05:04:57.796Z,7.80
2024-02-16T05:07:27.592Z,7.93
2024-02-16T05:09:59.661Z,8.10
2024-02-16T05:12:28.551Z,8.20
2024-02-16T05:14:57.478Z,9.33
2024-02-16T05:17:27.658Z,7.23
2024-02-16T05:19:56.373Z,9.03
2024-02-16T05:22:24.868Z,8.83
2024-02-16T05:24:53.424Z,8.20
2024-02-16T05:27:21.850Z,8.77
2024-02-16T05:29:51.875Z,8.17
2024-02-16T05:32:20.355Z,10.20
2024-02-16T05:34:50.893Z,8.67
2024-02-16T05:37:21.509Z,8.60
2024-02-16T05:39:58.446Z,9.37
2024-02-16T05:42:27.436Z,7.27
2024-02-16T05:44:56.212Z,8.13
2024-02-16T05:47:24.749Z,7.57
2024-02-16T05:49:54.762Z,7.50
2024-02-16T05:52:24.461Z,8.90
2024-02-16T05:54:53.064Z,7.37
2024-02-16T05:57:21.594Z,10.23
2024-02-16T05:59:52.510Z,8.90
2024-02-16T06:02:21.668Z,8.60
2024-02-16T06:04:51.059Z,11.80
2024-02-16T06:07:21.116Z,8.47
2024-02-16T06:09:54.182Z,9.03
2024-02-16T06:12:23.077Z,8.50
2024-02-16T06:14:51.645Z,7.47
2024-02-16T06:17:20.048Z,8.60
2024-02-16T06:19:49.373Z,7.90
2024-02-16T06:22:17.891Z,7.20
2024-02-16T06:24:47.816Z,7.20
2024-02-16T06:27:17.084Z,6.63
2024-02-16T06:29:45.532Z,7.27
2024-02-16T06:32:15.019Z,6.73
2024-02-16T06:34:43.635Z,7.90
2024-02-16T06:37:12.116Z,7.10
2024-02-16T06:39:41.153Z,6.97
2024-02-16T06:42:13.867Z,6.63
2024-02-16T06:44:42.833Z,7.40
2024-02-16T06:47:11.450Z,6.80
2024-02-16T06:49:39.828Z,7.20
2024-02-16T06:52:10.581Z,8.50
2024-02-16T06:54:39.100Z,8.03
2024-02-16T06:57:10.434Z,6.50
2024-02-16T06:59:41.723Z,6.10
2024-02-16T07:02:10.569Z,7.10
2024-02-16T07:04:39.122Z,7.00
2024-02-16T07:07:07.983Z,8.23
2024-02-16T07:09:36.770Z,9.20
2024-02-16T07:12:07.098Z,8.57
2024-02-16T07:14:35.567Z,8.07
2024-02-16T07:17:08.774Z,8.90
2024-02-16T07:19:37.218Z,9.40
2024-02-16T07:22:08.019Z,9.47
2024-02-16T07:24:36.840Z,10.17
2024-02-16T07:27:05.471Z,11.20
2024-02-16T07:29:33.865Z,10.80
2024-02-16T07:32:02.451Z,11.30
2024-02-16T07:34:32.431Z,11.10
2024-02-16T07:37:00.923Z,9.20
2024-02-16T07:39:30.213Z,10.70
2024-02-16T07:41:58.886Z,12.17
2024-02-16T07:44:27.332Z,10.47
2024-02-16T07:46:55.709Z,10.20
2024-02-16T07:49:24.232Z,10.00
2024-02-16T07:51:54.162Z,9.80
2024-02-16T07:54:22.587Z,10.40
2024-02-16T07:56:52.921Z,9.70
2024-02-16T07:59:21.739Z,11.23
2024-02-16T08:01:50.169Z,10.07
2024-02-16T08:04:24.431Z,11.67
2024-02-16T08:06:54.409Z,10.70
2024-02-16T08:09:22.844Z,11.80
2024-02-16T08:11:51.610Z,11.67
2024-02-16T08:14:20.940Z,11.57
2024-02-16T08:16:50.401Z,10.70
2024-02-16T08:19:21.733Z,10.77
2024-02-16T08:21:50.198Z,9.97
2024-02-16T08:24:20.385Z,11.60
2024-02-16T08:26:48.784Z,11.20
2024-02-16T08:29:17.181Z,11.83
2024-02-16T08:31:46.242Z,10.80
2024-02-16T08:34:15.926Z,11.17
2024-02-16T08:36:46.818Z,10.83
2024-02-16T08:39:14.729Z,11.97
2024-02-16T08:41:45.380Z,11.60
2024-02-16T08:44:13.807Z,12.07
2024-02-16T08:46:42.445Z,13.03
2024-02-16T08:49:11.843Z,11.70
2024-02-16T08:51:40.540Z,11.73
2024-02-16T08:54:10.859Z,10.47
2024-02-16T08:56:41.021Z,11.07
2024-02-16T08:59:10.977Z,12.77
2024-02-16T09:01:40.663Z,11.20
2024-02-16T09:04:09.264Z,12.43
2024-02-16T09:06:38.306Z,11.30
2024-02-16T09:09:08.179Z,11.30
2024-02-16T09:11:37.698Z,12.63
2024-02-16T09:14:06.081Z,12.00
2024-02-16T09:16:35.884Z,13.10
2024-02-16T09:19:04.612Z,13.30
2024-02-16T09:21:33.098Z,12.73
2024-02-16T09:24:03.083Z,13.33
2024-02-16T09:26:34.914Z,13.17
2024-02-16T09:29:03.653Z,13.20
2024-02-16T09:31:32.007Z,11.50
2024-02-16T09:34:01.828Z,11.93
2024-02-16T09:36:30.198Z,11.80
2024-02-16T09:38:58.631Z,12.73
2024-02-16T09:41:27.150Z,12.23
2024-02-16T09:43:55.642Z,12.17
2024-02-16T09:46:25.697Z,15.00
2024-02-16T09:48:55.549Z,12.00
2024-02-16T09:51:25.828Z,12.90
2024-02-16T09:53:59.637Z,11.77
2024-02-16T09:56:28.559Z,14.20
2024-02-16T09:58:57.254Z,13.80
2024-02-16T10:01:26.252Z,13.70
2024-02-16T10:03:55.027Z,13.00
2024-02-16T10:06:25.155Z,13.10
2024-02-16T10:08:55.005Z,14.90
2024-02-16T10:11:25.967Z,15.13
2024-02-16T10:13:58.854Z,15.93
2024-02-16T10:16:29.152Z,13.33
2024-02-16T10:19:00.029Z,15.53
2024-02-16T10:21:30.917Z,14.23
2024-02-16T10:24:05.732Z,18.47
2024-02-16T10:26:38.473Z,15.97
2024-02-16T10:29:09.390Z,15.50
2024-02-16T10:31:37.981Z,13.13
2024-02-16T10:34:08.304Z,15.47
2024-02-16T10:36:39.740Z,17.00
2024-02-16T10:39:10.084Z,16.13
2024-02-16T10:41:40.615Z,12.30
2024-02-16T10:44:09.057Z,15.13
2024-02-16T10:46:37.472Z,17.67
2024-02-16T10:49:07.842Z,16.60
2024-02-16T10:51:41.714Z,14.17
2024-02-16T10:54:11.329Z,16.87
2024-02-16T10:56:40.718Z,18.30
2024-02-16T10:59:12.218Z,18.77
2024-02-16T11:01:41.747Z,17.53
2024-02-16T11:04:11.856Z,17.33
2024-02-16T11:07:01.214Z,17.87
2024-02-16T11:09:30.368Z,17.67
2024-02-16T11:12:02.405Z,17.00
2024-02-16T11:14:37.840Z,19.00
2024-02-16T11:17:12.139Z,17.80
2024-02-16T11:19:42.724Z,17.53
2024-02-16T11:22:14.093Z,16.67
2024-02-16T11:24:46.755Z,13.60
2024-02-16T11:27:16.923Z,15.70
2024-02-16T11:29:45.583Z,16.17
2024-02-16T11:32:14.180Z,18.90
2024-02-16T11:34:43.281Z,15.90
2024-02-16T11:37:16.099Z,15.60
2024-02-16T11:39:46.753Z,17.20
2024-02-16T11:42:16.488Z,16.80
2024-02-16T11:44:54.675Z,18.97
2024-02-16T11:47:27.748Z,17.67
2024-02-16T11:50:05.976Z,18.47
2024-02-16T11:52:36.782Z,17.70
2024-02-16T11:55:06.347Z,15.47
2024-02-16T11:57:35.534Z,17.47
2024-02-16T12:00:09.058Z,17.27
2024-02-16T12:02:38.564Z,18.50
2024-02-16T12:05:08.818Z,17.60
2024-02-16T12:07:42.162Z,17.43
2024-02-16T12:10:11.971Z,16.60
2024-02-16T12:12:40.672Z,17.60
2024-02-16T12:15:10.173Z,16.40
2024-02-16T12:17:38.555Z,14.93
2024-02-16T12:20:15.251Z,14.27
2024-02-16T12:22:45.789Z,16.20
2024-02-16T12:25:18.770Z,14.50
2024-02-16T12:27:47.417Z,16.50
2024-02-16T12:30:17.243Z,15.77
2024-02-16T12:32:45.829Z,18.90
2024-02-16T12:35:14.470Z,19.77
2024-02-16T12:37:44.408Z,17.93
2024-02-16T12:40:13.258Z,17.00
2024-02-16T12:42:42.159Z,15.00
2024-02-16T12:45:11.932Z,16.33
2024-02-16T12:47:40.602Z,17.60
2024-02-16T12:50:09.949Z,17.93
2024-02-16T12:52:47.024Z,16.83
2024-02-16T12:55:21.108Z,17.87
2024-02-16T12:57:50.180Z,19.20
2024-02-16T13:00:19.690Z,19.43
2024-02-16T13:02:48.120Z,16.70
2024-02-16T13:05:16.848Z,16.73
2024-02-16T13:07:45.633Z,20.00
2024-02-16T13:10:14.338Z,18.13
2024-02-16T13:12:45.030Z,17.23
2024-02-16T13:15:23.056Z,19.40
2024-02-16T13:17:57.366Z,15.80
2024-02-16T13:20:26.248Z,18.60
2024-02-16T13:22:54.793Z,17.93
2024-02-16T13:25:23.562Z,15.93
2024-02-16T13:27:53.335Z,17.93
2024-02-16T13:30:21.813Z,17.70
2024-02-16T13:32:50.261Z,18.93
2024-02-16T13:35:21.439Z,13.80
2024-02-16T13:37:50.560Z,11.67
2024-02-16T13:40:19.670Z,10.43
2024-02-16T13:42:49.116Z,11.20
2024-02-16T13:45:19.178Z,11.90
2024-02-16T13:47:47.664Z,12.80
2024-02-16T13:50:16.335Z,13.20
2024-02-16T13:52:44.963Z,11.63
2024-02-16T13:55:13.562Z,11.50
2024-02-16T13:57:42.213Z,9.93
2024-02-16T14:00:11.450Z,11.90
2024-02-16T14:02:41.419Z,18.47
2024-02-16T14:05:09.826Z,11.73
2024-02-16T14:07:46.483Z,19.00
2024-02-16T14:10:19.693Z,12.90
2024-02-16T14:12:48.528Z,15.53
2024-02-16T14:15:17.923Z,12.80
2024-02-16T14:17:48.225Z,12.40
2024-02-16T14:20:16.876Z,11.20
2024-02-16T14:22:45.295Z,10.57
2024-02-16T14:25:14.845Z,9.47
2024-02-16T14:27:44.469Z,9.13
2024-02-16T14:30:14.360Z,9.57
2024-02-16T14:32:43.242Z,10.40
2024-02-16T14:35:13.365Z,9.80
2024-02-16T14:37:41.819Z,11.50
2024-02-16T14:40:12.699Z,10.00
2024-02-16T14:42:41.974Z,8.87
2024-02-16T14:45:21.198Z,10.70
2024-02-16T14:47:50.578Z,11.57
2024-02-16T14:50:20.655Z,11.60
2024-02-16T14:52:49.297Z,11.13
2024-02-16T14:55:17.714Z,11.40
2024-02-16T14:57:46.627Z,11.37
2024-02-16T15:00:16.097Z,12.83
2024-02-16T15:02:44.903Z,14.67
2024-02-16T15:05:14.193Z,15.37
2024-02-16T15:07:44.358Z,13.33
2024-02-16T15:10:13.195Z,16.00
2024-02-16T15:12:44.458Z,16.40
2024-02-16T15:15:14.175Z,16.53
2024-02-16T15:17:42.977Z,14.90
2024-02-16T15:20:11.907Z,15.80
2024-02-16T15:22:48.674Z,14.23
2024-02-16T15:25:23.309Z,14.00
2024-02-16T15:27:52.057Z,12.30
2024-02-16T15:30:20.570Z,14.27
2024-02-16T15:32:52.048Z,14.97
2024-02-16T15:35:22.619Z,14.30
2024-02-16T15:37:51.097Z,13.10
2024-02-16T15:40:20.028Z,14.10
2024-02-16T15:43:04.250Z,14.00
2024-02-16T15:45:32.949Z,14.77
2024-02-16T15:48:01.740Z,12.90
2024-02-16T15:50:31.726Z,15.10
2024-02-16T15:53:00.356Z,16.13
2024-02-16T15:55:28.762Z,14.40
2024-02-16T15:57:57.127Z,14.00
2024-02-16T16:00:27.282Z,16.27
2024-02-16T16:02:55.877Z,15.30
2024-02-16T16:05:24.348Z,14.37
2024-02-16T16:07:53.424Z,13.40
2024-02-16T16:10:21.832Z,13.57
2024-02-16T16:12:50.484Z,12.63
2024-02-16T16:15:19.369Z,12.87
2024-02-16T16:17:49.299Z,12.83
2024-02-16T16:20:18.435Z,12.93
2024-02-16T16:22:47.032Z,13.40
2024-02-16T16:25:15.734Z,12.87
2024-02-16T16:27:48.797Z,13.63
2024-02-16T16:30:17.721Z,13.03
2024-02-16T16:32:46.336Z,15.43
2024-02-16T16:35:16.438Z,13.07
2024-02-16T16:37:44.943Z,13.50
2024-02-16T16:40:14.191Z,12.23
2024-02-16T16:42:42.739Z,13.23
2024-02-16T16:45:12.943Z,14.43
2024-02-16T16:47:41.399Z,14.93
2024-02-16T16:50:11.788Z,13.50
2024-02-16T16:52:43.670Z,15.00
2024-02-16T16:55:12.044Z,12.90
2024-02-16T16:57:40.502Z,14.53
2024-02-16T17:00:10.062Z,13.97
2024-02-16T17:02:38.499Z,15.50
2024-02-16T17:05:08.634Z,13.63
2024-02-16T17:07:37.362Z,14.63
2024-02-16T17:10:09.340Z,16.67
2024-02-16T17:12:37.778Z,14.57
2024-02-16T17:15:07.638Z,13.43
2024-02-16T17:17:36.364Z,13.83
2024-02-16T17:20:05.083Z,14.53
2024-02-16T17:22:33.650Z,18.30
2024-02-16T17:25:05.176Z,15.40
2024-02-16T17:27:35.109Z,15.70
2024-02-16T17:30:05.218Z,15.03
2024-02-16T17:32:35.297Z,14.90
2024-02-16T17:35:04.242Z,13.93
2024-02-16T17:37:32.744Z,17.13
2024-02-16T17:40:01.230Z,13.57
2024-02-16T17:42:29.784Z,14.17
2024-02-16T17:44:59.999Z,19.43
2024-02-16T17:47:28.463Z,18.57
2024-02-16T17:50:11.021Z,17.67
2024-02-16T17:52:40.013Z,16.50
2024-02-16T17:55:09.148Z,16.10
2024-02-16T17:57:37.738Z,14.90
2024-02-16T18:00:09.116Z,15.27
2024-02-16T18:02:41.184Z,15.30
2024-02-16T18:05:13.695Z,16.10
2024-02-16T18:07:42.256Z,14.30
2024-02-16T18:10:12.422Z,14.13
2024-02-16T18:12:41.352Z,14.70
2024-02-16T18:15:14.095Z,15.43
2024-02-16T18:17:42.979Z,14.70
2024-02-16T18:20:14.620Z,14.33
2024-02-16T18:22:43.225Z,13.07
2024-02-16T18:25:11.791Z,13.37
2024-02-16T18:27:40.492Z,14.80
2024-02-16T18:30:11.917Z,16.90
2024-02-16T18:32:40.399Z,15.13
2024-02-16T18:35:09.563Z,15.20
2024-02-16T18:37:38.103Z,13.07
2024-02-16T18:40:09.947Z,13.83
2024-02-16T18:42:38.854Z,13.33
2024-02-16T18:45:10.069Z,12.73
2024-02-16T18:47:41.240Z,13.47
2024-02-16T18:50:11.783Z,14.93
2024-02-16T18:52:41.379Z,13.33
2024-02-16T18:55:10.399Z,13.23
2024-02-16T18:57:38.989Z,14.60
2024-02-16T19:00:10.127Z,15.77
2024-02-16T19:02:44.500Z,15.33
2024-02-16T19:05:13.623Z,14.27
2024-02-16T19:07:42.073Z,14.10
2024-02-16T19:10:12.219Z,14.30
2024-02-16T19:12:40.772Z,13.90
2024-02-16T19:15:10.671Z,15.50
2024-02-16T19:17:40.598Z,15.70
2024-02-16T19:20:10.133Z,15.07
2024-02-16T19:22:38.657Z,15.07
2024-02-16T19:25:08.699Z,15.10
2024-02-16T19:27:37.221Z,16.83
2024-02-16T19:30:08.088Z,15.53
2024-02-16T19:32:36.733Z,15.03
2024-02-16T19:35:08.416Z,14.20
2024-02-16T19:37:36.904Z,17.03
2024-02-16T19:40:05.969Z,16.40
2024-02-16T19:42:34.958Z,16.70
2024-02-16T19:45:04.078Z,13.80
2024-02-16T19:47:32.774Z,13.53
2024-02-16T19:50:01.259Z,16.10
2024-02-16T19:52:31.164Z,16.27
2024-02-16T19:55:00.711Z,15.40
2024-02-16T19:57:29.168Z,15.73
2024-02-16T19:59:58.442Z,13.77
2024-02-16T20:02:27.303Z,14.97
2024-02-16T20:04:55.728Z,16.17
2024-02-16T20:07:25.450Z,14.93
2024-02-16T20:09:56.550Z,17.63
2024-02-16T20:12:26.124Z,15.47
2024-02-16T20:14:55.390Z,14.40
2024-02-16T20:17:24.107Z,14.73
2024-02-16T20:19:55.143Z,16.27
2024-02-16T20:22:23.985Z,13.13
2024-02-16T20:24:52.387Z,15.80
2024-02-16T20:27:22.249Z,14.17
2024-02-16T20:29:50.699Z,16.83
2024-02-16T20:32:19.708Z,14.50
2024-02-16T20:34:48.242Z,14.77
2024-02-16T20:37:16.818Z,14.93
2024-02-16T20:39:45.342Z,15.50
2024-02-16T20:42:14.177Z,15.87
2024-02-16T20:44:44.109Z,16.10
2024-02-16T20:47:12.695Z,15.00
2024-02-16T20:49:41.126Z,15.50
2024-02-16T20:52:09.583Z,15.00
2024-02-16T20:54:38.318Z,15.07
2024-02-16T20:57:08.656Z,15.13
2024-02-16T20:59:37.131Z,15.03
2024-02-16T21:02:07.068Z,16.20
2024-02-16T21:04:36.713Z,14.27
2024-02-16T21:07:06.452Z,15.07
2024-02-16T21:09:35.106Z,14.63
2024-02-16T21:12:04.739Z,14.80
2024-02-16T21:14:33.500Z,15.07
2024-02-16T21:17:02.536Z,12.97
2024-02-16T21:19:34.046Z,15.80
2024-02-16T21:22:03.001Z,13.80
2024-02-16T21:24:31.494Z,15.30
2024-02-16T21:27:00.083Z,14.70
2024-02-16T21:29:28.845Z,14.00
2024-02-16T21:31:57.463Z,13.60
2024-02-16T21:34:25.935Z,13.70
2024-02-16T21:36:58.959Z,14.00
2024-02-16T21:39:27.739Z,14.73
2024-02-16T21:41:56.248Z,17.47
2024-02-16T21:44:24.671Z,15.10
2024-02-16T21:46:53.484Z,16.23
2024-02-16T21:49:22.704Z,13.73
2024-02-16T21:51:51.367Z,13.57
2024-02-16T21:54:22.082Z,14.07
2024-02-16T21:56:50.458Z,13.63
2024-02-16T21:59:20.154Z,13.10
2024-02-16T22:01:49.093Z,16.30
2024-02-16T22:04:17.569Z,12.70
2024-02-16T22:06:46.731Z,11.17
2024-02-16T22:09:15.368Z,16.13
2024-02-16T22:11:45.336Z,16.47
2024-02-16T22:14:13.794Z,11.30
2024-02-16T22:16:42.817Z,12.67
2024-02-16T22:19:11.318Z,12.70
2024-02-16T22:21:43.077Z,12.60
2024-02-16T22:24:12.352Z,13.00
2024-02-16T22:26:42.050Z,11.77
2024-02-16T22:29:11.997Z,11.40
2024-02-16T22:31:43.232Z,10.97
2024-02-16T22:34:14.396Z,12.57
2024-02-16T22:36:42.959Z,9.87
2024-02-16T22:39:11.526Z,11.83
2024-02-16T22:41:39.900Z,10.20
2024-02-16T22:44:08.517Z,10.53
2024-02-16T22:46:38.910Z,11.70
2024-02-16T22:49:07.444Z,10.50
2024-02-16T22:51:40.283Z,10.93
2024-02-16T22:54:15.845Z,11.77
2024-02-16T22:56:45.384Z,10.90
2024-02-16T22:59:13.824Z,9.93
2024-02-16T23:01:43.737Z,10.87
2024-02-16T23:04:12.352Z,11.80
2024-02-16T23:06:41.027Z,10.87
2024-02-16T23:09:10.379Z,10.63
2024-02-16T23:11:40.619Z,10.30
2024-02-16T23:14:11.245Z,10.40
2024-02-16T23:16:39.838Z,10.80
2024-02-16T23:19:09.871Z,9.80
2024-02-16T23:21:38.360Z,10.33
2024-02-16T23:24:08.181Z,9.10
2024-02-16T23:26:36.733Z,8.93
2024-02-16T23:29:05.209Z,10.00
2024-02-16T23:31:33.714Z,9.80
2024-02-16T23:34:02.206Z,9.73
2024-02-16T23:36:32.216Z,9.60
2024-02-16T23:39:00.648Z,8.70
2024-02-16T23:41:29.366Z,8.30
2024-02-16T23:43:58.376Z,8.90
2024-02-16T23:46:26.749Z,9.20
2024-02-16T23:48:56.283Z,9.67
2024-02-16T23:51:24.987Z,8.50
2024-02-16T23:53:54.795Z,8.30
2024-02-16T23:56:23.274Z,7.60
2024-02-16T23:58:51.762Z,9.23
